sensor_id;sensor_type;location;lat;lon;timestamp;pressure;altitude;pressure_sealevel;temperature;humidity
30935;BME280;51033;42.648;23.292;2023-07-09T00:02:27;94306.09;;;20.67;38.89
30935;BME280;51033;42.648;23.292;2023-07-09T00:04:53;94308.72;;;20.63;39.07
30935;BME280;51033;42.648;23.292;2023-07-09T00:09:50;94308.91;;;20.47;39.47
30935;BME280;51033;42.648;23.292;2023-07-09T00:12:17;94302.72;;;20.47;39.64
30935;BME280;51033;42.648;23.292;2023-07-09T00:14:43;94298.81;;;20.44;39.32
30935;BME280;51033;42.648;23.292;2023-07-09T00:17:33;94297.16;;;20.36;39.79
30935;BME280;51033;42.648;23.292;2023-07-09T00:19:59;94302.78;;;20.50;39.37
30935;BME280;51033;42.648;23.292;2023-07-09T00:22:25;94304.91;;;20.38;39.46
30935;BME280;51033;42.648;23.292;2023-07-09T00:24:52;94292.00;;;20.28;39.46
30935;BME280;51033;42.648;23.292;2023-07-09T00:27:23;94301.34;;;20.34;39.54
30935;BME280;51033;42.648;23.292;2023-07-09T00:29:51;94296.84;;;20.41;39.45
30935;BME280;51033;42.648;23.292;2023-07-09T00:32:19;94289.16;;;20.43;39.74
30935;BME280;51033;42.648;23.292;2023-07-09T00:34:47;94295.50;;;20.54;39.41
30935;BME280;51033;42.648;23.292;2023-07-09T00:37:18;94285.41;;;20.51;39.36
30935;BME280;51033;42.648;23.292;2023-07-09T00:39:45;94288.78;;;20.45;39.44
30935;BME280;51033;42.648;23.292;2023-07-09T00:42:16;94297.97;;;20.40;39.53
30935;BME280;51033;42.648;23.292;2023-07-09T00:44:47;94298.59;;;20.30;39.53
30935;BME280;51033;42.648;23.292;2023-07-09T00:50:01;94285.16;;;20.11;39.49
30935;BME280;51033;42.648;23.292;2023-07-09T00:52:33;94281.88;;;20.21;39.89
30935;BME280;51033;42.648;23.292;2023-07-09T00:55:05;94281.44;;;20.19;39.40
30935;BME280;51033;42.648;23.292;2023-07-09T00:57:33;94289.59;;;20.00;39.59
30935;BME280;51033;42.648;23.292;2023-07-09T01:00:04;94283.22;;;20.11;40.02
30935;BME280;51033;42.648;23.292;2023-07-09T01:02:39;94274.34;;;20.11;39.58
30935;BME280;51033;42.648;23.292;2023-07-09T01:05:09;94279.59;;;20.23;39.49
30935;BME280;51033;42.648;23.292;2023-07-09T01:07:36;94273.78;;;20.21;39.37
30935;BME280;51033;42.648;23.292;2023-07-09T01:10:02;94272.88;;;20.13;39.48
30935;BME280;51033;42.648;23.292;2023-07-09T01:12:28;94271.03;;;20.17;39.42
30935;BME280;51033;42.648;23.292;2023-07-09T01:14:56;94272.06;;;20.13;39.35
30935;BME280;51033;42.648;23.292;2023-07-09T01:17:26;94270.25;;;20.17;39.50
30935;BME280;51033;42.648;23.292;2023-07-09T01:19:54;94269.88;;;19.96;39.50
30935;BME280;51033;42.648;23.292;2023-07-09T01:22:20;94266.69;;;19.90;39.75
30935;BME280;51033;42.648;23.292;2023-07-09T01:27:12;94265.97;;;19.70;40.31
30935;BME280;51033;42.648;23.292;2023-07-09T01:29:39;94266.81;;;19.74;40.36
30935;BME280;51033;42.648;23.292;2023-07-09T01:32:05;94268.13;;;19.61;40.77
30935;BME280;51033;42.648;23.292;2023-07-09T01:34:32;94263.56;;;19.65;40.66
30935;BME280;51033;42.648;23.292;2023-07-09T01:36:58;94261.78;;;19.73;40.08
30935;BME280;51033;42.648;23.292;2023-07-09T01:39:25;94265.66;;;19.75;40.02
30935;BME280;51033;42.648;23.292;2023-07-09T01:41:51;94256.09;;;19.78;40.28
30935;BME280;51033;42.648;23.292;2023-07-09T01:44:16;94266.94;;;19.82;40.18
30935;BME280;51033;42.648;23.292;2023-07-09T01:46:41;94257.47;;;19.68;40.16
30935;BME280;51033;42.648;23.292;2023-07-09T01:49:07;94264.28;;;19.62;40.23
30935;BME280;51033;42.648;23.292;2023-07-09T01:51:34;94265.53;;;19.46;40.34
30935;BME280;51033;42.648;23.292;2023-07-09T01:54:01;94275.22;;;19.69;40.32
30935;BME280;51033;42.648;23.292;2023-07-09T01:56:27;94271.34;;;19.70;40.06
30935;BME280;51033;42.648;23.292;2023-07-09T01:58:54;94269.81;;;19.69;40.17
30935;BME280;51033;42.648;23.292;2023-07-09T02:01:29;94282.59;;;19.72;40.23
30935;BME280;51033;42.648;23.292;2023-07-09T02:03:54;94260.66;;;19.74;39.91
30935;BME280;51033;42.648;23.292;2023-07-09T02:06:19;94269.53;;;19.74;40.26
30935;BME280;51033;42.648;23.292;2023-07-09T02:08:45;94269.81;;;19.69;40.24
30935;BME280;51033;42.648;23.292;2023-07-09T02:11:11;94271.78;;;19.72;40.28
30935;BME280;51033;42.648;23.292;2023-07-09T02:13:36;94272.94;;;19.71;40.14
30935;BME280;51033;42.648;23.292;2023-07-09T02:16:02;94266.09;;;19.78;39.74
30935;BME280;51033;42.648;23.292;2023-07-09T02:18:28;94276.34;;;19.91;39.64
30935;BME280;51033;42.648;23.292;2023-07-09T02:20:54;94261.94;;;19.61;39.76
30935;BME280;51033;42.648;23.292;2023-07-09T02:23:19;94273.66;;;19.68;39.85
30935;BME280;51033;42.648;23.292;2023-07-09T02:25:45;94274.84;;;19.71;39.78
30935;BME280;51033;42.648;23.292;2023-07-09T02:28:10;94278.06;;;19.57;39.91
30935;BME280;51033;42.648;23.292;2023-07-09T02:30:35;94281.31;;;19.66;40.04
30935;BME280;51033;42.648;23.292;2023-07-09T02:33:01;94283.59;;;19.64;40.25
30935;BME280;51033;42.648;23.292;2023-07-09T02:35:26;94269.97;;;19.57;39.51
30935;BME280;51033;42.648;23.292;2023-07-09T02:37:51;94286.31;;;19.64;40.00
30935;BME280;51033;42.648;23.292;2023-07-09T02:40:17;94280.19;;;19.67;39.94
30935;BME280;51033;42.648;23.292;2023-07-09T02:42:42;94287.81;;;19.85;39.77
30935;BME280;51033;42.648;23.292;2023-07-09T02:45:08;94292.25;;;19.96;39.65
30935;BME280;51033;42.648;23.292;2023-07-09T02:47:34;94281.56;;;19.81;39.40
30935;BME280;51033;42.648;23.292;2023-07-09T02:49:59;94303.59;;;19.83;39.41
30935;BME280;51033;42.648;23.292;2023-07-09T02:52:25;94286.25;;;19.84;39.81
30935;BME280;51033;42.648;23.292;2023-07-09T02:54:52;94303.00;;;19.93;39.72
30935;BME280;51033;42.648;23.292;2023-07-09T02:57:17;94298.72;;;19.92;39.59
30935;BME280;51033;42.648;23.292;2023-07-09T02:59:42;94304.59;;;19.74;39.53
30935;BME280;51033;42.648;23.292;2023-07-09T03:02:08;94304.38;;;19.83;39.89
30935;BME280;51033;42.648;23.292;2023-07-09T03:04:34;94310.34;;;19.96;39.74
30935;BME280;51033;42.648;23.292;2023-07-09T03:06:59;94310.94;;;19.86;39.46
30935;BME280;51033;42.648;23.292;2023-07-09T03:09:25;94314.81;;;19.85;39.87
30935;BME280;51033;42.648;23.292;2023-07-09T03:11:50;94307.06;;;19.83;39.65
30935;BME280;51033;42.648;23.292;2023-07-09T03:14:16;94317.97;;;19.90;39.84
30935;BME280;51033;42.648;23.292;2023-07-09T03:16:42;94307.13;;;19.87;39.72
30935;BME280;51033;42.648;23.292;2023-07-09T03:19:07;94314.91;;;19.92;39.58
30935;BME280;51033;42.648;23.292;2023-07-09T03:21:33;94315.84;;;19.99;39.87
30935;BME280;51033;42.648;23.292;2023-07-09T03:23:58;94322.28;;;19.95;39.62
30935;BME280;51033;42.648;23.292;2023-07-09T03:26:24;94318.41;;;19.92;40.03
30935;BME280;51033;42.648;23.292;2023-07-09T03:28:54;94319.47;;;19.88;40.43
30935;BME280;51033;42.648;23.292;2023-07-09T03:31:20;94322.72;;;19.97;40.07
30935;BME280;51033;42.648;23.292;2023-07-09T03:33:50;94320.38;;;19.95;39.85
30935;BME280;51033;42.648;23.292;2023-07-09T03:36:15;94321.59;;;19.98;39.97
30935;BME280;51033;42.648;23.292;2023-07-09T03:38:41;94312.47;;;19.83;39.91
30935;BME280;51033;42.648;23.292;2023-07-09T03:41:06;94315.75;;;19.96;40.10
30935;BME280;51033;42.648;23.292;2023-07-09T03:43:32;94326.69;;;20.03;40.49
30935;BME280;51033;42.648;23.292;2023-07-09T03:45:58;94319.84;;;20.09;40.46
30935;BME280;51033;42.648;23.292;2023-07-09T03:48:23;94322.97;;;20.11;40.43
30935;BME280;51033;42.648;23.292;2023-07-09T03:50:49;94310.59;;;20.10;40.44
30935;BME280;51033;42.648;23.292;2023-07-09T03:53:15;94323.78;;;20.15;40.69
30935;BME280;51033;42.648;23.292;2023-07-09T03:55:41;94327.91;;;20.28;40.43
30935;BME280;51033;42.648;23.292;2023-07-09T03:58:06;94322.44;;;20.25;40.33
30935;BME280;51033;42.648;23.292;2023-07-09T04:00:33;94325.22;;;20.28;40.75
30935;BME280;51033;42.648;23.292;2023-07-09T04:02:58;94326.75;;;20.29;41.24
30935;BME280;51033;42.648;23.292;2023-07-09T04:05:25;94330.19;;;20.26;40.82
30935;BME280;51033;42.648;23.292;2023-07-09T04:07:51;94330.00;;;20.38;40.85
30935;BME280;51033;42.648;23.292;2023-07-09T04:10:17;94337.31;;;20.38;40.36
30935;BME280;51033;42.648;23.292;2023-07-09T04:12:43;94333.34;;;20.32;40.45
30935;BME280;51033;42.648;23.292;2023-07-09T04:15:09;94332.75;;;20.42;40.86
30935;BME280;51033;42.648;23.292;2023-07-09T04:17:35;94324.16;;;20.36;41.13
30935;BME280;51033;42.648;23.292;2023-07-09T04:20:01;94336.81;;;20.55;40.79
30935;BME280;51033;42.648;23.292;2023-07-09T04:22:31;94336.47;;;20.34;40.42
30935;BME280;51033;42.648;23.292;2023-07-09T04:24:56;94339.38;;;20.22;41.93
30935;BME280;51033;42.648;23.292;2023-07-09T04:27:23;94349.66;;;20.39;41.66
30935;BME280;51033;42.648;23.292;2023-07-09T04:29:52;94339.59;;;20.36;40.82
30935;BME280;51033;42.648;23.292;2023-07-09T04:32:18;94340.84;;;20.42;40.98
30935;BME280;51033;42.648;23.292;2023-07-09T04:34:44;94353.16;;;20.39;41.78
30935;BME280;51033;42.648;23.292;2023-07-09T04:37:10;94356.06;;;20.53;42.02
30935;BME280;51033;42.648;23.292;2023-07-09T04:39:37;94358.59;;;20.66;41.61
30935;BME280;51033;42.648;23.292;2023-07-09T04:42:03;94362.06;;;20.66;41.65
30935;BME280;51033;42.648;23.292;2023-07-09T04:44:28;94353.78;;;20.55;40.66
30935;BME280;51033;42.648;23.292;2023-07-09T04:46:54;94358.59;;;20.66;41.05
30935;BME280;51033;42.648;23.292;2023-07-09T04:49:19;94356.50;;;20.82;41.19
30935;BME280;51033;42.648;23.292;2023-07-09T04:51:44;94351.00;;;20.75;39.89
30935;BME280;51033;42.648;23.292;2023-07-09T04:54:10;94354.47;;;20.75;40.13
30935;BME280;51033;42.648;23.292;2023-07-09T04:56:36;94356.63;;;20.89;41.35
30935;BME280;51033;42.648;23.292;2023-07-09T04:59:02;94348.38;;;20.55;40.53
30935;BME280;51033;42.648;23.292;2023-07-09T05:01:28;94351.34;;;20.73;40.50
30935;BME280;51033;42.648;23.292;2023-07-09T05:03:54;94360.03;;;20.59;40.40
30935;BME280;51033;42.648;23.292;2023-07-09T05:06:20;94361.84;;;20.78;40.36
30935;BME280;51033;42.648;23.292;2023-07-09T05:08:47;94350.78;;;20.60;40.75
30935;BME280;51033;42.648;23.292;2023-07-09T05:11:14;94365.94;;;20.69;40.36
30935;BME280;51033;42.648;23.292;2023-07-09T05:13:40;94364.59;;;20.55;40.30
30935;BME280;51033;42.648;23.292;2023-07-09T05:16:05;94343.97;;;20.44;40.21
30935;BME280;51033;42.648;23.292;2023-07-09T05:18:30;94376.84;;;20.49;40.95
30935;BME280;51033;42.648;23.292;2023-07-09T05:20:56;94383.78;;;20.47;41.27
30935;BME280;51033;42.648;23.292;2023-07-09T05:23:23;94375.47;;;20.59;41.67
30935;BME280;51033;42.648;23.292;2023-07-09T05:25:49;94377.38;;;20.32;41.33
30935;BME280;51033;42.648;23.292;2023-07-09T05:28:15;94377.63;;;20.50;41.18
30935;BME280;51033;42.648;23.292;2023-07-09T05:30:43;94343.69;;;20.26;41.36
30935;BME280;51033;42.648;23.292;2023-07-09T05:33:09;94376.69;;;20.39;41.36
30935;BME280;51033;42.648;23.292;2023-07-09T05:35:34;94367.50;;;20.43;41.96
30935;BME280;51033;42.648;23.292;2023-07-09T05:38:00;94378.53;;;20.57;41.81
30935;BME280;51033;42.648;23.292;2023-07-09T05:40:25;94346.81;;;20.28;41.26
30935;BME280;51033;42.648;23.292;2023-07-09T05:42:51;94364.22;;;20.31;41.62
30935;BME280;51033;42.648;23.292;2023-07-09T05:45:16;94362.41;;;20.38;42.13
30935;BME280;51033;42.648;23.292;2023-07-09T05:47:41;94361.38;;;20.46;41.78
30935;BME280;51033;42.648;23.292;2023-07-09T05:50:07;94371.44;;;20.49;42.52
30935;BME280;51033;42.648;23.292;2023-07-09T05:52:33;94379.94;;;20.48;42.45
30935;BME280;51033;42.648;23.292;2023-07-09T05:54:59;94377.59;;;20.46;42.93
30935;BME280;51033;42.648;23.292;2023-07-09T05:57:25;94366.78;;;20.46;42.54
30935;BME280;51033;42.648;23.292;2023-07-09T05:59:51;94372.53;;;20.68;42.93
30935;BME280;51033;42.648;23.292;2023-07-09T06:02:18;94371.53;;;20.53;41.66
30935;BME280;51033;42.648;23.292;2023-07-09T06:04:44;94356.72;;;20.43;41.68
30935;BME280;51033;42.648;23.292;2023-07-09T06:07:11;94372.88;;;20.66;41.91
30935;BME280;51033;42.648;23.292;2023-07-09T06:09:39;94368.44;;;20.28;42.46
30935;BME280;51033;42.648;23.292;2023-07-09T06:12:05;94365.69;;;20.51;42.89
30935;BME280;51033;42.648;23.292;2023-07-09T06:14:31;94370.44;;;20.57;42.43
30935;BME280;51033;42.648;23.292;2023-07-09T06:16:57;94366.47;;;20.51;41.64
30935;BME280;51033;42.648;23.292;2023-07-09T06:19:23;94361.84;;;20.29;42.30
30935;BME280;51033;42.648;23.292;2023-07-09T06:21:48;94362.88;;;20.44;42.41
30935;BME280;51033;42.648;23.292;2023-07-09T06:24:13;94329.44;;;20.52;42.33
30935;BME280;51033;42.648;23.292;2023-07-09T06:26:39;94346.00;;;20.77;42.21
30935;BME280;51033;42.648;23.292;2023-07-09T06:29:05;94333.47;;;20.65;41.61
30935;BME280;51033;42.648;23.292;2023-07-09T06:31:30;94362.03;;;20.89;41.67
30935;BME280;51033;42.648;23.292;2023-07-09T06:33:56;94358.56;;;20.88;41.70
30935;BME280;51033;42.648;23.292;2023-07-09T06:36:21;94351.09;;;20.82;41.57
30935;BME280;51033;42.648;23.292;2023-07-09T06:38:46;94359.38;;;20.92;42.19
30935;BME280;51033;42.648;23.292;2023-07-09T06:41:15;94347.53;;;21.00;41.90
30935;BME280;51033;42.648;23.292;2023-07-09T06:43:41;94351.91;;;21.12;41.88
30935;BME280;51033;42.648;23.292;2023-07-09T06:46:10;94343.75;;;21.09;42.50
30935;BME280;51033;42.648;23.292;2023-07-09T06:48:36;94354.59;;;21.09;41.79
30935;BME280;51033;42.648;23.292;2023-07-09T06:51:01;94351.66;;;20.91;41.21
30935;BME280;51033;42.648;23.292;2023-07-09T06:53:27;94320.22;;;20.83;41.45
30935;BME280;51033;42.648;23.292;2023-07-09T06:55:54;94356.19;;;21.13;41.53
30935;BME280;51033;42.648;23.292;2023-07-09T06:58:25;94314.19;;;20.93;41.54
30935;BME280;51033;42.648;23.292;2023-07-09T07:00:53;94355.47;;;21.16;41.83
30935;BME280;51033;42.648;23.292;2023-07-09T07:03:22;94353.97;;;21.22;42.33
30935;BME280;51033;42.648;23.292;2023-07-09T07:05:49;94353.81;;;21.41;42.16
30935;BME280;51033;42.648;23.292;2023-07-09T07:08:17;94353.13;;;21.44;41.64
30935;BME280;51033;42.648;23.292;2023-07-09T07:10:44;94353.34;;;21.32;40.79
30935;BME280;51033;42.648;23.292;2023-07-09T07:13:10;94348.81;;;21.10;41.35
30935;BME280;51033;42.648;23.292;2023-07-09T07:15:39;94355.47;;;21.16;42.03
30935;BME280;51033;42.648;23.292;2023-07-09T07:18:05;94361.19;;;20.85;41.46
30935;BME280;51033;42.648;23.292;2023-07-09T07:20:31;94347.84;;;20.95;40.66
30935;BME280;51033;42.648;23.292;2023-07-09T07:22:57;94351.25;;;20.66;41.57
30935;BME280;51033;42.648;23.292;2023-07-09T07:25:23;94351.41;;;20.77;41.55
30935;BME280;51033;42.648;23.292;2023-07-09T07:27:49;94341.75;;;21.02;42.32
30935;BME280;51033;42.648;23.292;2023-07-09T07:30:15;94351.88;;;21.09;40.70
30935;BME280;51033;42.648;23.292;2023-07-09T07:32:46;94342.16;;;21.04;40.87
30935;BME280;51033;42.648;23.292;2023-07-09T07:35:13;94352.44;;;21.21;41.58
30935;BME280;51033;42.648;23.292;2023-07-09T07:37:40;94347.56;;;21.34;41.28
30935;BME280;51033;42.648;23.292;2023-07-09T07:40:06;94335.63;;;21.38;41.19
30935;BME280;51033;42.648;23.292;2023-07-09T07:42:32;94326.06;;;21.44;41.54
30935;BME280;51033;42.648;23.292;2023-07-09T07:44:57;94331.72;;;21.66;41.74
30935;BME280;51033;42.648;23.292;2023-07-09T07:47:23;94342.69;;;21.46;42.03
30935;BME280;51033;42.648;23.292;2023-07-09T07:49:48;94320.97;;;21.39;41.96
30935;BME280;51033;42.648;23.292;2023-07-09T07:52:14;94347.38;;;21.83;41.85
30935;BME280;51033;42.648;23.292;2023-07-09T07:54:39;94332.63;;;21.80;40.41
30935;BME280;51033;42.648;23.292;2023-07-09T07:57:05;94327.50;;;21.68;40.10
30935;BME280;51033;42.648;23.292;2023-07-09T07:59:30;94339.09;;;21.69;41.08
30935;BME280;51033;42.648;23.292;2023-07-09T08:02:00;94335.72;;;21.79;41.04
30935;BME280;51033;42.648;23.292;2023-07-09T08:04:25;94331.94;;;21.54;41.61
30935;BME280;51033;42.648;23.292;2023-07-09T08:06:51;94318.88;;;21.56;41.36
30935;BME280;51033;42.648;23.292;2023-07-09T08:09:17;94327.06;;;21.33;41.89
30935;BME280;51033;42.648;23.292;2023-07-09T08:11:43;94324.28;;;21.26;42.12
30935;BME280;51033;42.648;23.292;2023-07-09T08:14:09;94333.72;;;21.39;41.40
30935;BME280;51033;42.648;23.292;2023-07-09T08:16:35;94339.31;;;21.23;41.97
30935;BME280;51033;42.648;23.292;2023-07-09T08:19:01;94313.19;;;21.34;42.82
30935;BME280;51033;42.648;23.292;2023-07-09T08:21:26;94331.03;;;21.42;42.96
30935;BME280;51033;42.648;23.292;2023-07-09T08:23:52;94327.94;;;21.40;42.49
30935;BME280;51033;42.648;23.292;2023-07-09T08:26:17;94319.88;;;21.48;42.77
30935;BME280;51033;42.648;23.292;2023-07-09T08:28:42;94325.44;;;21.55;41.55
30935;BME280;51033;42.648;23.292;2023-07-09T08:31:09;94312.09;;;21.42;42.10
30935;BME280;51033;42.648;23.292;2023-07-09T08:33:34;94319.19;;;21.54;41.49
30935;BME280;51033;42.648;23.292;2023-07-09T08:35:59;94318.13;;;21.59;41.94
30935;BME280;51033;42.648;23.292;2023-07-09T08:38:25;94307.16;;;21.52;42.42
30935;BME280;51033;42.648;23.292;2023-07-09T08:41:06;94321.31;;;21.68;41.88
30935;BME280;51033;42.648;23.292;2023-07-09T08:46:28;94329.22;;;21.87;41.34
30935;BME280;51033;42.648;23.292;2023-07-09T08:48:58;94320.19;;;21.72;41.35
30935;BME280;51033;42.648;23.292;2023-07-09T08:51:39;94316.78;;;21.79;41.75
30935;BME280;51033;42.648;23.292;2023-07-09T08:54:28;94323.09;;;21.90;41.80
30935;BME280;51033;42.648;23.292;2023-07-09T08:57:00;94325.94;;;21.67;41.21
30935;BME280;51033;42.648;23.292;2023-07-09T08:59:30;94316.78;;;21.79;42.22
30935;BME280;51033;42.648;23.292;2023-07-09T09:01:57;94322.47;;;22.07;42.50
30935;BME280;51033;42.648;23.292;2023-07-09T09:04:28;94316.44;;;22.24;42.93
30935;BME280;51033;42.648;23.292;2023-07-09T09:07:02;94325.75;;;22.23;40.28
30935;BME280;51033;42.648;23.292;2023-07-09T09:09:39;94327.53;;;22.12;40.80
30935;BME280;51033;42.648;23.292;2023-07-09T09:14:44;94321.69;;;22.07;41.66
30935;BME280;51033;42.648;23.292;2023-07-09T09:17:15;94325.00;;;22.30;41.64
30935;BME280;51033;42.648;23.292;2023-07-09T09:19:59;94311.34;;;22.19;40.73
30935;BME280;51033;42.648;23.292;2023-07-09T09:22:36;94322.00;;;22.39;41.67
30935;BME280;51033;42.648;23.292;2023-07-09T09:25:20;94325.16;;;22.48;40.85
30935;BME280;51033;42.648;23.292;2023-07-09T09:27:46;94331.41;;;22.55;40.01
30935;BME280;51033;42.648;23.292;2023-07-09T09:30:14;94308.03;;;22.37;40.72
30935;BME280;51033;42.648;23.292;2023-07-09T09:32:46;94307.28;;;22.40;41.07
30935;BME280;51033;42.648;23.292;2023-07-09T09:35:15;94318.56;;;22.49;41.04
30935;BME280;51033;42.648;23.292;2023-07-09T09:37:45;94317.50;;;22.64;41.27
30935;BME280;51033;42.648;23.292;2023-07-09T09:40:17;94324.13;;;22.70;40.56
30935;BME280;51033;42.648;23.292;2023-07-09T09:42:42;94313.00;;;22.82;41.47
30935;BME280;51033;42.648;23.292;2023-07-09T09:45:14;94317.56;;;22.71;40.41
30935;BME280;51033;42.648;23.292;2023-07-09T09:47:40;94318.72;;;22.70;40.53
30935;BME280;51033;42.648;23.292;2023-07-09T09:50:06;94298.06;;;22.48;39.55
30935;BME280;51033;42.648;23.292;2023-07-09T09:52:31;94305.84;;;22.56;40.27
30935;BME280;51033;42.648;23.292;2023-07-09T09:55:12;94291.88;;;22.54;40.25
30935;BME280;51033;42.648;23.292;2023-07-09T09:57:47;94305.06;;;22.56;40.09
30935;BME280;51033;42.648;23.292;2023-07-09T10:00:14;94295.78;;;22.57;39.72
30935;BME280;51033;42.648;23.292;2023-07-09T10:02:41;94305.94;;;22.67;39.84
30935;BME280;51033;42.648;23.292;2023-07-09T10:05:21;94298.22;;;22.76;39.83
30935;BME280;51033;42.648;23.292;2023-07-09T10:08:09;94290.47;;;22.78;39.50
30935;BME280;51033;42.648;23.292;2023-07-09T10:10:37;94295.97;;;22.85;39.10
30935;BME280;51033;42.648;23.292;2023-07-09T10:13:18;94258.56;;;22.50;39.36
30935;BME280;51033;42.648;23.292;2023-07-09T10:18:48;94287.41;;;22.83;39.41
30935;BME280;51033;42.648;23.292;2023-07-09T10:39:46;94280.91;;;22.91;38.86
30935;BME280;51033;42.648;23.292;2023-07-09T10:42:35;94278.81;;;22.70;39.16
30935;BME280;51033;42.648;23.292;2023-07-09T10:45:08;94276.81;;;22.60;39.70
30935;BME280;51033;42.648;23.292;2023-07-09T10:47:38;94273.41;;;22.74;39.80
30935;BME280;51033;42.648;23.292;2023-07-09T10:50:09;94266.06;;;22.74;39.24
30935;BME280;51033;42.648;23.292;2023-07-09T10:52:39;94272.38;;;22.93;39.31
30935;BME280;51033;42.648;23.292;2023-07-09T10:57:51;94278.22;;;22.98;38.74
30935;BME280;51033;42.648;23.292;2023-07-09T11:00:21;94271.28;;;23.04;37.92
30935;BME280;51033;42.648;23.292;2023-07-09T11:02:53;94268.94;;;22.99;37.59
30935;BME280;51033;42.648;23.292;2023-07-09T11:05:23;94266.63;;;23.05;37.66
30935;BME280;51033;42.648;23.292;2023-07-09T11:10:30;94278.31;;;23.23;36.81
30935;BME280;51033;42.648;23.292;2023-07-09T11:13:04;94282.28;;;23.36;36.72
30935;BME280;51033;42.648;23.292;2023-07-09T11:15:35;94283.84;;;23.41;36.58
30935;BME280;51033;42.648;23.292;2023-07-09T11:18:05;94270.66;;;23.46;36.38
30935;BME280;51033;42.648;23.292;2023-07-09T11:20:36;94273.78;;;23.52;36.54
30935;BME280;51033;42.648;23.292;2023-07-09T11:23:18;94274.50;;;23.42;35.91
30935;BME280;51033;42.648;23.292;2023-07-09T11:26:00;94272.63;;;23.53;36.88
30935;BME280;51033;42.648;23.292;2023-07-09T11:28:33;94270.66;;;23.46;37.07
30935;BME280;51033;42.648;23.292;2023-07-09T11:31:08;94271.50;;;23.61;36.68
30935;BME280;51033;42.648;23.292;2023-07-09T11:33:47;94269.16;;;23.56;35.51
30935;BME280;51033;42.648;23.292;2023-07-09T11:36:22;94272.28;;;23.65;36.89
30935;BME280;51033;42.648;23.292;2023-07-09T11:38:48;94242.03;;;23.56;36.73
30935;BME280;51033;42.648;23.292;2023-07-09T11:41:34;94261.81;;;23.60;35.87
30935;BME280;51033;42.648;23.292;2023-07-09T11:46:35;94264.53;;;23.64;36.33
30935;BME280;51033;42.648;23.292;2023-07-09T11:49:02;94266.47;;;23.60;35.81
30935;BME280;51033;42.648;23.292;2023-07-09T11:51:41;94257.16;;;23.64;36.76
30935;BME280;51033;42.648;23.292;2023-07-09T11:54:11;94266.88;;;23.86;36.73
30935;BME280;51033;42.648;23.292;2023-07-09T11:56:38;94266.13;;;23.89;35.21
30935;BME280;51033;42.648;23.292;2023-07-09T11:59:04;94264.56;;;23.95;33.60
30935;BME280;51033;42.648;23.292;2023-07-09T12:01:36;94264.53;;;23.81;35.23
30935;BME280;51033;42.648;23.292;2023-07-09T12:04:05;94269.19;;;23.77;35.00
30935;BME280;51033;42.648;23.292;2023-07-09T12:06:32;94258.34;;;23.84;35.08
30935;BME280;51033;42.648;23.292;2023-07-09T12:08:58;94250.59;;;24.00;35.58
30935;BME280;51033;42.648;23.292;2023-07-09T12:13:53;94271.56;;;24.25;35.63
30935;BME280;51033;42.648;23.292;2023-07-09T12:18:55;94252.56;;;24.25;34.77
30935;BME280;51033;42.648;23.292;2023-07-09T12:21:22;94261.88;;;24.31;35.05
30935;BME280;51033;42.648;23.292;2023-07-09T12:23:49;94245.19;;;24.18;35.06
30935;BME280;51033;42.648;23.292;2023-07-09T12:26:17;94254.09;;;24.40;36.20
30935;BME280;51033;42.648;23.292;2023-07-09T12:28:49;94237.44;;;24.24;35.15
30935;BME280;51033;42.648;23.292;2023-07-09T12:31:16;94250.22;;;24.27;36.28
30935;BME280;51033;42.648;23.292;2023-07-09T12:33:49;94252.91;;;24.44;36.20
30935;BME280;51033;42.648;23.292;2023-07-09T12:36:16;94250.22;;;24.48;35.43
30935;BME280;51033;42.648;23.292;2023-07-09T12:39:05;94247.88;;;24.50;34.61
30935;BME280;51033;42.648;23.292;2023-07-09T12:41:39;94233.50;;;24.35;35.61
30935;BME280;51033;42.648;23.292;2023-07-09T12:44:05;94251.78;;;23.99;35.74
30935;BME280;51033;42.648;23.292;2023-07-09T12:46:35;94249.47;;;24.23;34.96
30935;BME280;51033;42.648;23.292;2023-07-09T12:49:01;94233.53;;;24.32;35.38
30935;BME280;51033;42.648;23.292;2023-07-09T12:51:29;94235.09;;;24.43;35.52
30935;BME280;51033;42.648;23.292;2023-07-09T12:56:34;94228.41;;;24.66;35.27
30935;BME280;51033;42.648;23.292;2023-07-09T12:59:02;94227.25;;;24.74;35.19
30935;BME280;51033;42.648;23.292;2023-07-09T13:01:33;94237.75;;;24.82;34.77
30935;BME280;51033;42.648;23.292;2023-07-09T13:04:01;94200.03;;;24.70;35.37
30935;BME280;51033;42.648;23.292;2023-07-09T13:06:34;94196.94;;;24.82;35.48
30935;BME280;51033;42.648;23.292;2023-07-09T13:09:00;94233.38;;;24.99;34.90
30935;BME280;51033;42.648;23.292;2023-07-09T13:11:35;94225.22;;;25.06;35.21
30935;BME280;51033;42.648;23.292;2023-07-09T13:14:04;94230.19;;;25.18;34.38
30935;BME280;51033;42.648;23.292;2023-07-09T13:16:30;94238.31;;;25.29;34.72
30935;BME280;51033;42.648;23.292;2023-07-09T13:18:55;94223.25;;;25.07;33.98
30935;BME280;51033;42.648;23.292;2023-07-09T13:21:22;94236.47;;;25.08;35.28
30935;BME280;51033;42.648;23.292;2023-07-09T13:23:48;94238.84;;;24.96;35.87
30935;BME280;51033;42.648;23.292;2023-07-09T13:26:15;94232.56;;;25.09;34.71
30935;BME280;51033;42.648;23.292;2023-07-09T13:28:42;94242.63;;;25.23;35.23
30935;BME280;51033;42.648;23.292;2023-07-09T13:31:10;94246.16;;;25.13;35.31
30935;BME280;51033;42.648;23.292;2023-07-09T13:33:36;94235.69;;;25.04;35.20
30935;BME280;51033;42.648;23.292;2023-07-09T13:36:02;94228.28;;;25.08;35.01
30935;BME280;51033;42.648;23.292;2023-07-09T13:38:28;94232.50;;;25.27;35.04
30935;BME280;51033;42.648;23.292;2023-07-09T13:40:56;94228.66;;;25.17;34.43
30935;BME280;51033;42.648;23.292;2023-07-09T13:43:33;94230.22;;;25.15;35.10
30935;BME280;51033;42.648;23.292;2023-07-09T13:46:01;94239.47;;;25.28;34.60